sensor_id;sensor_type;location;lat;lon;timestamp;P1;durP1;ratioP1;P2;durP2;ratioP2
84334;SDS011;74512;51.190;3.198;2024-03-22T00:01:49;24.58;;;11.38;;
84334;SDS011;74512;51.190;3.198;2024-03-22T00:04:15;22.92;;;11.68;;
84334;SDS011;74512;51.190;3.198;2024-03-22T00:06:42;29.45;;;12.82;;
84334;SDS011;74512;51.190;3.198;2024-03-22T00:09:09;23.67;;;11.55;;
84334;SDS011;74512;51.190;3.198;2024-03-22T00:11:35;25.45;;;11.32;;
84334;SDS011;74512;51.190;3.198;2024-03-22T00:14:01;23.23;;;9.88;;
84334;SDS011;74512;51.190;3.198;2024-03-22T00:16:27;21.35;;;9.63;;
84334;SDS011;74512;51.190;3.198;2024-03-22T00:18:53;23.20;;;11.55;;
84334;SDS011;74512;51.190;3.198;2024-03-22T00:21:20;18.38;;;9.85;;
84334;SDS011;74512;51.190;3.198;2024-03-22T00:23:46;17.70;;;8.30;;
84334;SDS011;74512;51.190;3.198;2024-03-22T00:26:12;21.13;;;11.77;;
84334;SDS011;74512;51.190;3.198;2024-03-22T00:28:38;23.38;;;11.85;;
84334;SDS011;74512;51.190;3.198;2024-03-22T00:31:03;24.55;;;11.40;;
84334;SDS011;74512;51.190;3.198;2024-03-22T00:33:29;18.08;;;8.13;;
84334;SDS011;74512;51.190;3.198;2024-03-22T00:35:55;18.45;;;9.60;;
84334;SDS011;74512;51.190;3.198;2024-03-22T00:38:20;21.98;;;10.75;;
84334;SDS011;74512;51.190;3.198;2024-03-22T00:40:46;21.80;;;11.75;;
84334;SDS011;74512;51.190;3.198;2024-03-22T00:43:11;17.02;;;6.80;;
84334;SDS011;74512;51.190;3.198;2024-03-22T00:45:37;21.60;;;10.90;;
84334;SDS011;74512;51.190;3.198;2024-03-22T00:48:03;19.70;;;10.35;;
84334;SDS011;74512;51.190;3.198;2024-03-22T00:50:29;19.85;;;9.18;;
84334;SDS011;74512;51.190;3.198;2024-03-22T00:52:54;15.63;;;7.68;;
84334;SDS011;74512;51.190;3.198;2024-03-22T00:55:23;23.25;;;10.98;;
84334;SDS011;74512;51.190;3.198;2024-03-22T00:57:49;21.45;;;10.60;;
84334;SDS011;74512;51.190;3.198;2024-03-22T01:00:15;20.00;;;9.73;;
84334;SDS011;74512;51.190;3.198;2024-03-22T01:02:41;19.77;;;9.75;;
84334;SDS011;74512;51.190;3.198;2024-03-22T01:05:07;17.85;;;8.75;;
84334;SDS011;74512;51.190;3.198;2024-03-22T01:07:33;20.65;;;9.18;;
84334;SDS011;74512;51.190;3.198;2024-03-22T01:09:59;20.60;;;9.45;;
84334;SDS011;74512;51.190;3.198;2024-03-22T01:12:25;20.42;;;10.65;;
84334;SDS011;74512;51.190;3.198;2024-03-22T01:14:50;15.82;;;6.22;;
84334;SDS011;74512;51.190;3.198;2024-03-22T01:17:16;20.27;;;9.13;;
84334;SDS011;74512;51.190;3.198;2024-03-22T01:19:41;18.30;;;7.78;;
84334;SDS011;74512;51.190;3.198;2024-03-22T01:22:07;20.50;;;9.45;;
84334;SDS011;74512;51.190;3.198;2024-03-22T01:24:33;20.10;;;10.07;;
84334;SDS011;74512;51.190;3.198;2024-03-22T01:26:58;17.40;;;8.85;;
84334;SDS011;74512;51.190;3.198;2024-03-22T01:29:24;17.98;;;9.57;;
84334;SDS011;74512;51.190;3.198;2024-03-22T01:31:50;12.27;;;5.60;;
84334;SDS011;74512;51.190;3.198;2024-03-22T01:34:15;17.88;;;8.75;;
84334;SDS011;74512;51.190;3.198;2024-03-22T01:36:41;17.40;;;8.55;;
84334;SDS011;74512;51.190;3.198;2024-03-22T01:39:06;20.52;;;10.63;;
84334;SDS011;74512;51.190;3.198;2024-03-22T01:41:32;20.08;;;9.23;;
84334;SDS011;74512;51.190;3.198;2024-03-22T01:43:58;21.17;;;10.13;;
84334;SDS011;74512;51.190;3.198;2024-03-22T01:46:24;19.63;;;9.23;;
84334;SDS011;74512;51.190;3.198;2024-03-22T01:48:49;21.08;;;9.38;;
84334;SDS011;74512;51.190;3.198;2024-03-22T01:51:16;17.50;;;7.03;;
84334;SDS011;74512;51.190;3.198;2024-03-22T01:53:42;19.40;;;8.85;;
84334;SDS011;74512;51.190;3.198;2024-03-22T01:56:08;17.02;;;8.45;;
84334;SDS011;74512;51.190;3.198;2024-03-22T01:58:34;25.15;;;10.05;;
84334;SDS011;74512;51.190;3.198;2024-03-22T02:01:00;23.10;;;9.40;;
84334;SDS011;74512;51.190;3.198;2024-03-22T02:03:26;20.60;;;9.88;;
84334;SDS011;74512;51.190;3.198;2024-03-22T02:05:52;17.70;;;9.00;;
84334;SDS011;74512;51.190;3.198;2024-03-22T02:08:18;19.52;;;7.72;;
84334;SDS011;74512;51.190;3.198;2024-03-22T02:10:44;19.38;;;8.93;;
84334;SDS011;74512;51.190;3.198;2024-03-22T02:13:10;21.33;;;9.23;;
84334;SDS011;74512;51.190;3.198;2024-03-22T02:15:36;17.45;;;9.00;;
84334;SDS011;74512;51.190;3.198;2024-03-22T02:18:01;18.63;;;9.40;;
84334;SDS011;74512;51.190;3.198;2024-03-22T02:20:27;17.58;;;7.90;;
84334;SDS011;74512;51.190;3.198;2024-03-22T02:22:53;18.38;;;9.15;;
84334;SDS011;74512;51.190;3.198;2024-03-22T02:25:18;20.77;;;10.73;;
84334;SDS011;74512;51.190;3.198;2024-03-22T02:27:44;18.35;;;9.27;;
84334;SDS011;74512;51.190;3.198;2024-03-22T02:30:10;15.82;;;8.35;;
84334;SDS011;74512;51.190;3.198;2024-03-22T02:32:35;19.52;;;10.52;;
84334;SDS011;74512;51.190;3.198;2024-03-22T02:35:02;18.95;;;9.27;;
84334;SDS011;74512;51.190;3.198;2024-03-22T02:37:28;16.23;;;8.85;;
84334;SDS011;74512;51.190;3.198;2024-03-22T02:39:54;23.08;;;10.60;;
84334;SDS011;74512;51.190;3.198;2024-03-22T02:42:19;27.08;;;12.35;;
84334;SDS011;74512;51.190;3.198;2024-03-22T02:44:45;22.38;;;10.55;;
84334;SDS011;74512;51.190;3.198;2024-03-22T02:47:10;22.17;;;10.23;;
84334;SDS011;74512;51.190;3.198;2024-03-22T02:49:38;23.90;;;10.55;;
84334;SDS011;74512;51.190;3.198;2024-03-22T02:52:04;21.48;;;10.32;;
84334;SDS011;74512;51.190;3.198;2024-03-22T02:54:29;17.80;;;9.05;;
84334;SDS011;74512;51.190;3.198;2024-03-22T02:56:55;20.52;;;8.90;;
84334;SDS011;74512;51.190;3.198;2024-03-22T02:59:21;20.17;;;9.27;;
84334;SDS011;74512;51.190;3.198;2024-03-22T03:01:46;9.60;;;4.72;;
84334;SDS011;74512;51.190;3.198;2024-03-22T03:04:12;24.48;;;10.02;;
84334;SDS011;74512;51.190;3.198;2024-03-22T03:06:38;19.25;;;9.15;;
84334;SDS011;74512;51.190;3.198;2024-03-22T03:09:04;22.58;;;12.05;;
84334;SDS011;74512;51.190;3.198;2024-03-22T03:11:33;22.10;;;10.52;;
84334;SDS011;74512;51.190;3.198;2024-03-22T03:13:58;30.95;;;12.18;;
84334;SDS011;74512;51.190;3.198;2024-03-22T03:16:24;19.98;;;10.13;;
84334;SDS011;74512;51.190;3.198;2024-03-22T03:18:50;18.95;;;8.95;;
84334;SDS011;74512;51.190;3.198;2024-03-22T03:21:15;23.17;;;10.85;;
84334;SDS011;74512;51.190;3.198;2024-03-22T03:23:41;21.33;;;10.43;;
84334;SDS011;74512;51.190;3.198;2024-03-22T03:26:07;21.52;;;10.50;;
84334;SDS011;74512;51.190;3.198;2024-03-22T03:28:32;20.13;;;9.73;;
84334;SDS011;74512;51.190;3.198;2024-03-22T03:30:58;27.40;;;12.27;;
84334;SDS011;74512;51.190;3.198;2024-03-22T03:33:24;20.23;;;10.43;;
84334;SDS011;74512;51.190;3.198;2024-03-22T03:35:49;19.70;;;10.23;;
84334;SDS011;74512;51.190;3.198;2024-03-22T03:38:15;24.95;;;12.02;;
84334;SDS011;74512;51.190;3.198;2024-03-22T03:40:41;25.58;;;11.68;;
84334;SDS011;74512;51.190;3.198;2024-03-22T03:43:06;25.55;;;12.23;;
84334;SDS011;74512;51.190;3.198;2024-03-22T03:45:32;22.50;;;10.82;;
84334;SDS011;74512;51.190;3.198;2024-03-22T03:48:00;20.90;;;9.10;;
84334;SDS011;74512;51.190;3.198;2024-03-22T03:50:27;24.65;;;11.10;;
84334;SDS011;74512;51.190;3.198;2024-03-22T03:52:52;26.05;;;8.80;;
84334;SDS011;74512;51.190;3.198;2024-03-22T03:55:18;22.60;;;9.88;;
84334;SDS011;74512;51.190;3.198;2024-03-22T03:57:43;17.80;;;9.18;;
84334;SDS011;74512;51.190;3.198;2024-03-22T04:00:09;29.35;;;13.27;;
84334;SDS011;74512;51.190;3.198;2024-03-22T04:02:35;19.40;;;8.80;;
84334;SDS011;74512;51.190;3.198;2024-03-22T04:05:01;22.25;;;9.57;;
84334;SDS011;74512;51.190;3.198;2024-03-22T04:07:26;21.70;;;10.40;;
84334;SDS011;74512;51.190;3.198;2024-03-22T04:09:54;23.63;;;10.55;;
84334;SDS011;74512;51.190;3.198;2024-03-22T04:12:19;30.80;;;11.38;;
84334;SDS011;74512;51.190;3.198;2024-03-22T04:14:45;22.98;;;9.18;;
84334;SDS011;74512;51.190;3.198;2024-03-22T04:17:11;22.23;;;10.63;;
84334;SDS011;74512;51.190;3.198;2024-03-22T04:19:36;19.00;;;8.02;;
84334;SDS011;74512;51.190;3.198;2024-03-22T04:22:02;23.77;;;10.50;;
84334;SDS011;74512;51.190;3.198;2024-03-22T04:24:29;22.15;;;8.80;;
84334;SDS011;74512;51.190;3.198;2024-03-22T04:26:54;20.75;;;8.10;;
84334;SDS011;74512;51.190;3.198;2024-03-22T04:29:20;22.75;;;8.60;;
84334;SDS011;74512;51.190;3.198;2024-03-22T04:31:45;19.77;;;7.82;;
84334;SDS011;74512;51.190;3.198;2024-03-22T04:34:11;26.90;;;11.23;;
84334;SDS011;74512;51.190;3.198;2024-03-22T04:36:37;18.75;;;7.57;;
84334;SDS011;74512;51.190;3.198;2024-03-22T04:39:02;27.25;;;9.52;;
84334;SDS011;74512;51.190;3.198;2024-03-22T04:41:28;21.73;;;8.48;;
84334;SDS011;74512;51.190;3.198;2024-03-22T04:43:54;23.75;;;10.35;;
84334;SDS011;74512;51.190;3.198;2024-03-22T04:46:20;23.60;;;10.48;;
84334;SDS011;74512;51.190;3.198;2024-03-22T04:48:45;23.98;;;10.23;;
84334;SDS011;74512;51.190;3.198;2024-03-22T04:51:11;17.60;;;8.48;;
84334;SDS011;74512;51.190;3.198;2024-03-22T04:53:37;15.90;;;8.27;;
84334;SDS011;74512;51.190;3.198;2024-03-22T04:56:03;17.20;;;7.38;;
84334;SDS011;74512;51.190;3.198;2024-03-22T04:58:29;13.30;;;7.07;;
84334;SDS011;74512;51.190;3.198;2024-03-22T05:00:58;21.20;;;9.75;;
84334;SDS011;74512;51.190;3.198;2024-03-22T05:03:24;28.13;;;11.35;;
84334;SDS011;74512;51.190;3.198;2024-03-22T05:05:50;18.63;;;8.40;;
84334;SDS011;74512;51.190;3.198;2024-03-22T05:08:16;23.52;;;9.30;;
84334;SDS011;74512;51.190;3.198;2024-03-22T05:10:42;27.88;;;12.27;;
84334;SDS011;74512;51.190;3.198;2024-03-22T05:13:08;22.48;;;8.43;;
84334;SDS011;74512;51.190;3.198;2024-03-22T05:15:33;25.15;;;11.02;;
84334;SDS011;74512;51.190;3.198;2024-03-22T05:17:59;31.55;;;12.65;;
84334;SDS011;74512;51.190;3.198;2024-03-22T05:20:25;18.38;;;7.75;;
84334;SDS011;74512;51.190;3.198;2024-03-22T05:22:51;19.67;;;8.82;;
84334;SDS011;74512;51.190;3.198;2024-03-22T05:25:17;29.25;;;12.30;;
84334;SDS011;74512;51.190;3.198;2024-03-22T05:27:43;18.65;;;8.75;;
84334;SDS011;74512;51.190;3.198;2024-03-22T05:30:09;22.63;;;9.82;;
84334;SDS011;74512;51.190;3.198;2024-03-22T05:32:36;30.27;;;11.18;;
84334;SDS011;74512;51.190;3.198;2024-03-22T05:35:03;22.63;;;9.38;;
84334;SDS011;74512;51.190;3.198;2024-03-22T05:37:29;25.45;;;10.80;;
84334;SDS011;74512;51.190;3.198;2024-03-22T05:39:55;27.77;;;12.52;;
84334;SDS011;74512;51.190;3.198;2024-03-22T05:42:20;21.05;;;10.25;;
84334;SDS011;74512;51.190;3.198;2024-03-22T05:44:47;22.75;;;10.38;;
84334;SDS011;74512;51.190;3.198;2024-03-22T05:47:12;19.73;;;9.38;;
84334;SDS011;74512;51.190;3.198;2024-03-22T05:49:38;24.02;;;11.00;;
84334;SDS011;74512;51.190;3.198;2024-03-22T05:52:04;21.67;;;8.90;;
84334;SDS011;74512;51.190;3.198;2024-03-22T05:54:30;22.75;;;10.48;;
84334;SDS011;74512;51.190;3.198;2024-03-22T05:56:55;24.55;;;11.02;;
84334;SDS011;74512;51.190;3.198;2024-03-22T05:59:21;20.60;;;8.25;;
84334;SDS011;74512;51.190;3.198;2024-03-22T06:01:47;25.67;;;10.35;;
84334;SDS011;74512;51.190;3.198;2024-03-22T06:04:12;23.40;;;10.55;;
84334;SDS011;74512;51.190;3.198;2024-03-22T06:06:38;21.85;;;10.57;;
84334;SDS011;74512;51.190;3.198;2024-03-22T06:09:04;18.90;;;8.48;;
84334;SDS011;74512;51.190;3.198;2024-03-22T06:11:33;22.38;;;10.18;;
84334;SDS011;74512;51.190;3.198;2024-03-22T06:13:59;18.45;;;8.68;;
84334;SDS011;74512;51.190;3.198;2024-03-22T06:16:25;18.60;;;7.70;;
84334;SDS011;74512;51.190;3.198;2024-03-22T06:18:50;24.88;;;10.40;;
84334;SDS011;74512;51.190;3.198;2024-03-22T06:21:16;20.25;;;9.20;;
84334;SDS011;74512;51.190;3.198;2024-03-22T06:23:48;22.30;;;8.27;;
84334;SDS011;74512;51.190;3.198;2024-03-22T06:26:14;21.38;;;8.68;;
84334;SDS011;74512;51.190;3.198;2024-03-22T06:28:40;18.98;;;8.02;;
84334;SDS011;74512;51.190;3.198;2024-03-22T06:31:05;19.92;;;8.82;;
84334;SDS011;74512;51.190;3.198;2024-03-22T06:33:31;21.70;;;10.25;;
84334;SDS011;74512;51.190;3.198;2024-03-22T06:35:57;15.88;;;6.85;;
84334;SDS011;74512;51.190;3.198;2024-03-22T06:38:22;14.32;;;6.70;;
84334;SDS011;74512;51.190;3.198;2024-03-22T06:40:48;21.95;;;8.95;;
84334;SDS011;74512;51.190;3.198;2024-03-22T06:43:14;19.52;;;7.55;;
84334;SDS011;74512;51.190;3.198;2024-03-22T06:45:39;16.70;;;7.57;;
84334;SDS011;74512;51.190;3.198;2024-03-22T06:48:05;15.95;;;5.80;;
84334;SDS011;74512;51.190;3.198;2024-03-22T06:50:30;13.60;;;5.22;;
84334;SDS011;74512;51.190;3.198;2024-03-22T06:52:56;18.10;;;7.32;;
84334;SDS011;74512;51.190;3.198;2024-03-22T06:55:22;24.85;;;11.23;;
84334;SDS011;74512;51.190;3.198;2024-03-22T06:57:48;26.35;;;10.25;;
84334;SDS011;74512;51.190;3.198;2024-03-22T07:00:15;10.77;;;4.75;;
84334;SDS011;74512;51.190;3.198;2024-03-22T07:02:41;17.67;;;7.13;;
84334;SDS011;74512;51.190;3.198;2024-03-22T07:05:07;21.58;;;8.13;;
84334;SDS011;74512;51.190;3.198;2024-03-22T07:07:34;25.10;;;9.23;;
84334;SDS011;74512;51.190;3.198;2024-03-22T07:10:00;19.52;;;7.40;;
84334;SDS011;74512;51.190;3.198;2024-03-22T07:12:26;15.80;;;6.07;;
84334;SDS011;74512;51.190;3.198;2024-03-22T07:14:51;10.82;;;5.68;;
84334;SDS011;74512;51.190;3.198;2024-03-22T07:17:17;26.35;;;9.10;;
84334;SDS011;74512;51.190;3.198;2024-03-22T07:19:44;12.18;;;6.32;;
84334;SDS011;74512;51.190;3.198;2024-03-22T07:22:10;21.02;;;8.82;;
84334;SDS011;74512;51.190;3.198;2024-03-22T07:24:35;27.00;;;9.85;;
84334;SDS011;74512;51.190;3.198;2024-03-22T07:27:01;17.85;;;7.18;;
84334;SDS011;74512;51.190;3.198;2024-03-22T07:29:27;18.70;;;6.97;;
84334;SDS011;74512;51.190;3.198;2024-03-22T07:31:53;16.10;;;6.05;;
84334;SDS011;74512;51.190;3.198;2024-03-22T07:34:18;13.68;;;6.50;;
84334;SDS011;74512;51.190;3.198;2024-03-22T07:36:44;27.27;;;9.00;;
84334;SDS011;74512;51.190;3.198;2024-03-22T07:39:10;20.88;;;7.68;;
84334;SDS011;74512;51.190;3.198;2024-03-22T07:41:35;18.17;;;7.40;;
84334;SDS011;74512;51.190;3.198;2024-03-22T07:44:01;18.67;;;8.68;;
84334;SDS011;74512;51.190;3.198;2024-03-22T07:46:27;30.15;;;11.00;;
84334;SDS011;74512;51.190;3.198;2024-03-22T07:48:53;17.63;;;6.38;;
84334;SDS011;74512;51.190;3.198;2024-03-22T07:51:19;18.50;;;6.60;;
84334;SDS011;74512;51.190;3.198;2024-03-22T07:53:45;18.33;;;7.35;;
84334;SDS011;74512;51.190;3.198;2024-03-22T07:56:11;13.85;;;5.72;;
84334;SDS011;74512;51.190;3.198;2024-03-22T07:58:38;13.95;;;7.40;;
84334;SDS011;74512;51.190;3.198;2024-03-22T08:01:03;10.10;;;5.32;;
84334;SDS011;74512;51.190;3.198;2024-03-22T08:03:29;12.52;;;5.78;;
84334;SDS011;74512;51.190;3.198;2024-03-22T08:05:55;16.73;;;7.28;;
84334;SDS011;74512;51.190;3.198;2024-03-22T08:08:20;19.80;;;8.02;;
84334;SDS011;74512;51.190;3.198;2024-03-22T08:10:46;11.93;;;4.45;;
84334;SDS011;74512;51.190;3.198;2024-03-22T08:13:11;22.05;;;8.65;;
84334;SDS011;74512;51.190;3.198;2024-03-22T08:15:37;16.23;;;6.95;;
84334;SDS011;74512;51.190;3.198;2024-03-22T08:18:03;19.80;;;7.03;;
84334;SDS011;74512;51.190;3.198;2024-03-22T08:20:29;13.25;;;6.20;;
84334;SDS011;74512;51.190;3.198;2024-03-22T08:22:55;14.02;;;5.65;;
84334;SDS011;74512;51.190;3.198;2024-03-22T08:25:21;11.68;;;5.28;;
84334;SDS011;74512;51.190;3.198;2024-03-22T08:27:48;19.05;;;6.68;;
84334;SDS011;74512;51.190;3.198;2024-03-22T08:30:14;15.10;;;5.82;;
84334;SDS011;74512;51.190;3.198;2024-03-22T08:32:40;16.95;;;7.15;;
84334;SDS011;74512;51.190;3.198;2024-03-22T08:35:06;11.73;;;5.03;;
84334;SDS011;74512;51.190;3.198;2024-03-22T08:37:33;19.63;;;7.60;;
84334;SDS011;74512;51.190;3.198;2024-03-22T08:39:59;13.15;;;5.05;;
84334;SDS011;74512;51.190;3.198;2024-03-22T08:42:24;17.50;;;6.13;;
84334;SDS011;74512;51.190;3.198;2024-03-22T08:44:50;8.05;;;4.13;;
84334;SDS011;74512;51.190;3.198;2024-03-22T08:47:16;11.73;;;5.63;;
84334;SDS011;74512;51.190;3.198;2024-03-22T08:49:41;11.98;;;4.32;;
84334;SDS011;74512;51.190;3.198;2024-03-22T08:52:09;10.82;;;4.43;;
84334;SDS011;74512;51.190;3.198;2024-03-22T08:54:35;6.05;;;2.05;;
84334;SDS011;74512;51.190;3.198;2024-03-22T08:57:00;9.02;;;3.50;;
84334;SDS011;74512;51.190;3.198;2024-03-22T08:59:26;10.50;;;3.47;;
84334;SDS011;74512;51.190;3.198;2024-03-22T09:01:52;12.18;;;4.70;;
84334;SDS011;74512;51.190;3.198;2024-03-22T09:04:18;10.00;;;3.22;;
84334;SDS011;74512;51.190;3.198;2024-03-22T09:06:44;15.23;;;4.93;;
84334;SDS011;74512;51.190;3.198;2024-03-22T09:09:10;7.00;;;3.03;;
84334;SDS011;74512;51.190;3.198;2024-03-22T09:11:36;14.20;;;5.70;;
84334;SDS011;74512;51.190;3.198;2024-03-22T09:14:02;8.88;;;3.80;;
84334;SDS011;74512;51.190;3.198;2024-03-22T09:16:28;13.70;;;4.47;;
84334;SDS011;74512;51.190;3.198;2024-03-22T09:18:55;7.93;;;3.33;;
84334;SDS011;74512;51.190;3.198;2024-03-22T09:21:21;8.15;;;2.92;;
84334;SDS011;74512;51.190;3.198;2024-03-22T09:23:47;10.45;;;3.40;;
84334;SDS011;74512;51.190;3.198;2024-03-22T09:26:12;7.88;;;2.50;;
84334;SDS011;74512;51.190;3.198;2024-03-22T09:28:39;18.35;;;5.10;;
84334;SDS011;74512;51.190;3.198;2024-03-22T09:31:05;17.23;;;3.78;;
84334;SDS011;74512;51.190;3.198;2024-03-22T09:33:35;9.73;;;3.72;;
84334;SDS011;74512;51.190;3.198;2024-03-22T09:36:01;7.35;;;3.13;;
84334;SDS011;74512;51.190;3.198;2024-03-22T09:38:27;16.42;;;5.78;;
84334;SDS011;74512;51.190;3.198;2024-03-22T09:40:53;19.20;;;7.07;;
84334;SDS011;74512;51.190;3.198;2024-03-22T09:43:23;12.70;;;5.03;;
84334;SDS011;74512;51.190;3.198;2024-03-22T09:45:51;9.48;;;3.47;;
84334;SDS011;74512;51.190;3.198;2024-03-22T09:48:18;17.88;;;6.38;;
84334;SDS011;74512;51.190;3.198;2024-03-22T09:50:48;13.63;;;5.15;;
84334;SDS011;74512;51.190;3.198;2024-03-22T09:53:20;16.33;;;4.82;;
84334;SDS011;74512;51.190;3.198;2024-03-22T09:55:47;12.63;;;4.63;;
84334;SDS011;74512;51.190;3.198;2024-03-22T09:58:13;7.72;;;3.63;;
84334;SDS011;74512;51.190;3.198;2024-03-22T10:00:41;13.38;;;4.60;;
84334;SDS011;74512;51.190;3.198;2024-03-22T10:03:07;19.23;;;7.47;;
84334;SDS011;74512;51.190;3.198;2024-03-22T10:05:34;13.02;;;5.47;;
84334;SDS011;74512;51.190;3.198;2024-03-22T10:08:00;12.48;;;4.40;;
84334;SDS011;74512;51.190;3.198;2024-03-22T10:10:27;16.42;;;7.05;;
84334;SDS011;74512;51.190;3.198;2024-03-22T10:12:52;9.10;;;4.65;;
84334;SDS011;74512;51.190;3.198;2024-03-22T10:15:18;14.15;;;5.22;;
84334;SDS011;74512;51.190;3.198;2024-03-22T10:17:44;10.95;;;4.75;;
84334;SDS011;74512;51.190;3.198;2024-03-22T10:20:12;20.83;;;8.30;;
84334;SDS011;74512;51.190;3.198;2024-03-22T10:25:24;13.10;;;4.50;;
84334;SDS011;74512;51.190;3.198;2024-03-22T10:27:51;10.77;;;4.40;;
84334;SDS011;74512;51.190;3.198;2024-03-22T10:30:18;19.50;;;5.80;;
84334;SDS011;74512;51.190;3.198;2024-03-22T10:32:44;13.85;;;5.43;;
84334;SDS011;74512;51.190;3.198;2024-03-22T10:35:13;12.88;;;4.93;;
84334;SDS011;74512;51.190;3.198;2024-03-22T10:37:39;18.42;;;9.05;;
84334;SDS011;74512;51.190;3.198;2024-03-22T10:40:06;18.42;;;7.10;;
84334;SDS011;74512;51.190;3.198;2024-03-22T10:42:37;21.60;;;9.43;;
84334;SDS011;74512;51.190;3.198;2024-03-22T10:45:10;17.05;;;5.85;;
84334;SDS011;74512;51.190;3.198;2024-03-22T10:47:37;14.47;;;6.77;;
84334;SDS011;74512;51.190;3.198;2024-03-22T10:50:10;13.02;;;6.47;;
84334;SDS011;74512;51.190;3.198;2024-03-22T10:52:41;17.40;;;7.30;;
84334;SDS011;74512;51.190;3.198;2024-03-22T10:55:36;13.52;;;7.13;;
84334;SDS011;74512;51.190;3.198;2024-03-22T10:58:04;16.75;;;7.60;;
84334;SDS011;74512;51.190;3.198;2024-03-22T11:00:30;18.20;;;9.07;;
84334;SDS011;74512;51.190;3.198;2024-03-22T11:03:03;21.75;;;8.25;;
84334;SDS011;74512;51.190;3.198;2024-03-22T11:05:29;25.42;;;12.20;;
84334;SDS011;74512;51.190;3.198;2024-03-22T11:07:59;13.45;;;7.70;;
84334;SDS011;74512;51.190;3.198;2024-03-22T11:10:26;15.00;;;7.25;;
84334;SDS011;74512;51.190;3.198;2024-03-22T11:13:01;29.85;;;14.57;;
84334;SDS011;74512;51.190;3.198;2024-03-22T11:15:30;24.67;;;13.87;;
84334;SDS011;74512;51.190;3.198;2024-03-22T11:17:57;21.98;;;10.00;;
84334;SDS011;74512;51.190;3.198;2024-03-22T11:20:23;16.75;;;8.40;;
84334;SDS011;74512;51.190;3.198;2024-03-22T11:22:49;16.63;;;9.43;;
84334;SDS011;74512;51.190;3.198;2024-03-22T11:25:16;17.42;;;10.35;;
84334;SDS011;74512;51.190;3.198;2024-03-22T11:27:41;20.45;;;11.05;;
84334;SDS011;74512;51.190;3.198;2024-03-22T11:30:07;24.25;;;12.27;;
84334;SDS011;74512;51.190;3.198;2024-03-22T11:32:33;23.70;;;12.90;;
84334;SDS011;74512;51.190;3.198;2024-03-22T11:35:10;20.63;;;13.43;;
84334;SDS011;74512;51.190;3.198;2024-03-22T11:37:41;17.55;;;9.80;;
84334;SDS011;74512;51.190;3.198;2024-03-22T11:40:10;19.17;;;11.80;;
84334;SDS011;74512;51.190;3.198;2024-03-22T11:42:44;21.58;;;13.77;;
84334;SDS011;74512;51.190;3.198;2024-03-22T11:45:16;20.23;;;11.63;;
84334;SDS011;74512;51.190;3.198;2024-03-22T11:47:43;17.38;;;10.45;;
84334;SDS011;74512;51.190;3.198;2024-03-22T11:50:10;17.27;;;9.90;;
84334;SDS011;74512;51.190;3.198;2024-03-22T11:52:43;15.82;;;9.15;;
84334;SDS011;74512;51.190;3.198;2024-03-22T11:55:12;19.95;;;10.93;;
84334;SDS011;74512;51.190;3.198;2024-03-22T11:57:39;17.00;;;9.15;;
84334;SDS011;74512;51.190;3.198;2024-03-22T12:00:05;22.85;;;13.60;;
84334;SDS011;74512;51.190;3.198;2024-03-22T12:02:35;17.75;;;9.32;;
84334;SDS011;74512;51.190;3.198;2024-03-22T12:05:03;15.43;;;8.77;;
84334;SDS011;74512;51.190;3.198;2024-03-22T12:07:30;19.58;;;9.73;;
84334;SDS011;74512;51.190;3.198;2024-03-22T12:09:56;26.00;;;15.80;;
84334;SDS011;74512;51.190;3.198;2024-03-22T12:12:22;15.68;;;10.60;;
84334;SDS011;74512;51.190;3.198;2024-03-22T12:14:48;14.60;;;8.98;;
84334;SDS011;74512;51.190;3.198;2024-03-22T12:17:16;17.42;;;11.82;;
84334;SDS011;74512;51.190;3.198;2024-03-22T12:19:42;14.60;;;9.40;;
84334;SDS011;74512;51.190;3.198;2024-03-22T12:22:07;18.98;;;11.70;;
84334;SDS011;74512;51.190;3.198;2024-03-22T12:24:33;13.60;;;8.77;;
84334;SDS011;74512;51.190;3.198;2024-03-22T12:26:59;19.35;;;12.68;;
84334;SDS011;74512;51.190;3.198;2024-03-22T12:29:24;16.48;;;12.13;;
84334;SDS011;74512;51.190;3.198;2024-03-22T12:31:50;17.33;;;11.20;;
84334;SDS011;74512;51.190;3.198;2024-03-22T12:34:16;16.33;;;10.15;;
84334;SDS011;74512;51.190;3.198;2024-03-22T12:36:42;17.52;;;11.35;;
84334;SDS011;74512;51.190;3.198;2024-03-22T12:39:08;20.52;;;13.52;;
84334;SDS011;74512;51.190;3.198;2024-03-22T12:41:34;13.32;;;9.32;;
84334;SDS011;74512;51.190;3.198;2024-03-22T12:44:00;12.80;;;8.32;;
84334;SDS011;74512;51.190;3.198;2024-03-22T12:46:26;12.35;;;8.52;;
84334;SDS011;74512;51.190;3.198;2024-03-22T12:48:52;14.40;;;9.55;;
84334;SDS011;74512;51.190;3.198;2024-03-22T12:51:18;12.90;;;9.82;;
84334;SDS011;74512;51.190;3.198;2024-03-22T12:53:44;11.52;;;8.63;;
84334;SDS011;74512;51.190;3.198;2024-03-22T12:56:10;13.23;;;9.85;;
84334;SDS011;74512;51.190;3.198;2024-03-22T12:58:36;10.88;;;7.60;;
84334;SDS011;74512;51.190;3.198;2024-03-22T13:01:02;11.43;;;8.10;;
84334;SDS011;74512;51.190;3.198;2024-03-22T13:03:30;10.55;;;7.22;;
84334;SDS011;74512;51.190;3.198;2024-03-22T13:05:57;11.60;;;7.45;;
84334;SDS011;74512;51.190;3.198;2024-03-22T13:08:23;10.55;;;7.22;;
84334;SDS011;74512;51.190;3.198;2024-03-22T13:10:48;8.98;;;6.70;;
84334;SDS011;74512;51.190;3.198;2024-03-22T13:13:14;7.55;;;5.63;;
84334;SDS011;74512;51.190;3.198;2024-03-22T13:15:41;6.32;;;4.53;;
84334;SDS011;74512;51.190;3.198;2024-03-22T13:18:07;6.68;;;5.25;;
84334;SDS011;74512;51.190;3.198;2024-03-22T13:20:34;7.22;;;5.32;;
84334;SDS011;74512;51.190;3.198;2024-03-22T13:23:00;7.30;;;4.85;;
84334;SDS011;74512;51.190;3.198;2024-03-22T13:25:26;7.75;;;4.95;;
84334;SDS011;74512;51.190;3.198;2024-03-22T13:27:52;5.85;;;4.40;;
84334;SDS011;74512;51.190;3.198;2024-03-22T13:30:18;6.15;;;4.63;;
84334;SDS011;74512;51.190;3.198;2024-03-22T13:32:43;5.45;;;4.05;;
84334;SDS011;74512;51.190;3.198;2024-03-22T13:35:10;5.43;;;4.00;;
84334;SDS011;74512;51.190;3.198;2024-03-22T13:37:36;7.25;;;4.15;;
84334;SDS011;74512;51.190;3.198;2024-03-22T13:40:02;4.72;;;3.08;;
84334;SDS011;74512;51.190;3.198;2024-03-22T13:42:28;5.53;;;3.42;;
84334;SDS011;74512;51.190;3.198;2024-03-22T13:44:53;6.68;;;4.30;;
84334;SDS011;74512;51.190;3.198;2024-03-22T13:47:21;6.18;;;4.00;;
84334;SDS011;74512;51.190;3.198;2024-03-22T13:49:47;5.10;;;4.03;;
84334;SDS011;74512;51.190;3.198;2024-03-22T13:52:13;6.20;;;4.18;;
84334;SDS011;74512;51.190;3.198;2024-03-22T13:54:39;4.88;;;3.35;;
84334;SDS011;74512;51.190;3.198;2024-03-22T13:57:05;8.90;;;4.53;;
84334;SDS011;74512;51.190;3.198;2024-03-22T13:59:30;8.30;;;4.55;;
84334;SDS011;74512;51.190;3.198;2024-03-22T14:01:56;4.63;;;3.40;;
84334;SDS011;74512;51.190;3.198;2024-03-22T14:04:23;6.70;;;3.65;;
84334;SDS011;74512;51.190;3.198;2024-03-22T14:06:48;5.88;;;3.80;;
84334;SDS011;74512;51.190;3.198;2024-03-22T14:09:14;6.18;;;3.83;;
84334;SDS011;74512;51.190;3.198;2024-03-22T14:11:40;4.90;;;3.50;;
84334;SDS011;74512;51.190;3.198;2024-03-22T14:14:07;6.82;;;4.00;;
84334;SDS011;74512;51.190;3.198;2024-03-22T14:16:37;5.97;;;3.80;;
84334;SDS011;74512;51.190;3.198;2024-03-22T14:19:06;7.13;;;4.32;;
84334;SDS011;74512;51.190;3.198;2024-03-22T14:21:33;5.50;;;3.60;;
84334;SDS011;74512;51.190;3.198;2024-03-22T14:23:59;5.43;;;3.95;;
84334;SDS011;74512;51.190;3.198;2024-03-22T14:26:25;4.20;;;3.08;;
84334;SDS011;74512;51.190;3.198;2024-03-22T14:28:50;6.65;;;4.00;;
84334;SDS011;74512;51.190;3.198;2024-03-22T14:31:17;5.07;;;3.28;;